sensor_id;sensor_type;location;lat;lon;timestamp;P1;durP1;ratioP1;P2;durP2;ratioP2
4434;SDS011;46552;52.150;8.428;2023-10-09T00:01:27;11.67;;;3.57;;
4434;SDS011;46552;52.150;8.428;2023-10-09T00:03:56;7.53;;;3.27;;
4434;SDS011;46552;52.150;8.428;2023-10-09T00:06:26;7.07;;;3.47;;
4434;SDS011;46552;52.150;8.428;2023-10-09T00:09:02;5.63;;;3.00;;
4434;SDS011;46552;52.150;8.428;2023-10-09T00:11:42;6.40;;;3.40;;
4434;SDS011;46552;52.150;8.428;2023-10-09T00:14:12;13.60;;;3.27;;
4434;SDS011;46552;52.150;8.428;2023-10-09T00:16:40;12.13;;;3.40;;
4434;SDS011;46552;52.150;8.428;2023-10-09T00:19:12;10.40;;;3.87;;
4434;SDS011;46552;52.150;8.428;2023-10-09T00:21:42;8.60;;;3.67;;
4434;SDS011;46552;52.150;8.428;2023-10-09T00:24:10;10.27;;;3.17;;
4434;SDS011;46552;52.150;8.428;2023-10-09T00:26:47;9.80;;;4.00;;
4434;SDS011;46552;52.150;8.428;2023-10-09T00:29:16;8.47;;;4.07;;
4434;SDS011;46552;52.150;8.428;2023-10-09T00:31:49;7.23;;;3.40;;
4434;SDS011;46552;52.150;8.428;2023-10-09T00:34:21;7.27;;;3.70;;
4434;SDS011;46552;52.150;8.428;2023-10-09T00:36:51;10.73;;;4.27;;
4434;SDS011;46552;52.150;8.428;2023-10-09T00:39:19;11.57;;;3.47;;
4434;SDS011;46552;52.150;8.428;2023-10-09T00:42:05;21.93;;;4.07;;
4434;SDS011;46552;52.150;8.428;2023-10-09T00:44:34;12.20;;;3.77;;
4434;SDS011;46552;52.150;8.428;2023-10-09T00:47:06;9.70;;;3.33;;
4434;SDS011;46552;52.150;8.428;2023-10-09T00:49:46;6.27;;;3.00;;
4434;SDS011;46552;52.150;8.428;2023-10-09T00:52:15;10.53;;;3.50;;
4434;SDS011;46552;52.150;8.428;2023-10-09T00:54:52;11.10;;;4.57;;
4434;SDS011;46552;52.150;8.428;2023-10-09T00:57:26;10.00;;;4.10;;
4434;SDS011;46552;52.150;8.428;2023-10-09T00:59:58;10.57;;;5.40;;
4434;SDS011;46552;52.150;8.428;2023-10-09T01:02:32;15.70;;;5.20;;
4434;SDS011;46552;52.150;8.428;2023-10-09T01:05:03;11.03;;;3.90;;
4434;SDS011;46552;52.150;8.428;2023-10-09T01:07:45;10.03;;;4.30;;
4434;SDS011;46552;52.150;8.428;2023-10-09T01:10:14;9.30;;;4.50;;
4434;SDS011;46552;52.150;8.428;2023-10-09T01:12:43;18.53;;;4.70;;
4434;SDS011;46552;52.150;8.428;2023-10-09T01:15:22;11.33;;;4.87;;
4434;SDS011;46552;52.150;8.428;2023-10-09T01:18:09;13.33;;;5.23;;
4434;SDS011;46552;52.150;8.428;2023-10-09T01:20:36;12.20;;;5.90;;
4434;SDS011;46552;52.150;8.428;2023-10-09T01:23:11;15.77;;;6.70;;
4434;SDS011;46552;52.150;8.428;2023-10-09T01:25:39;19.67;;;8.53;;
4434;SDS011;46552;52.150;8.428;2023-10-09T01:28:10;18.57;;;7.70;;
4434;SDS011;46552;52.150;8.428;2023-10-09T01:30:41;15.67;;;8.10;;
4434;SDS011;46552;52.150;8.428;2023-10-09T01:33:09;13.50;;;6.27;;
4434;SDS011;46552;52.150;8.428;2023-10-09T01:35:48;13.90;;;7.80;;
4434;SDS011;46552;52.150;8.428;2023-10-09T01:38:20;15.77;;;7.60;;
4434;SDS011;46552;52.150;8.428;2023-10-09T01:41:11;16.60;;;6.30;;
4434;SDS011;46552;52.150;8.428;2023-10-09T01:43:45;14.53;;;6.13;;
4434;SDS011;46552;52.150;8.428;2023-10-09T01:46:15;11.07;;;5.70;;
4434;SDS011;46552;52.150;8.428;2023-10-09T01:48:44;13.93;;;6.90;;
4434;SDS011;46552;52.150;8.428;2023-10-09T01:51:15;18.70;;;7.40;;
4434;SDS011;46552;52.150;8.428;2023-10-09T01:53:46;19.50;;;7.37;;
4434;SDS011;46552;52.150;8.428;2023-10-09T01:56:21;18.07;;;8.20;;
4434;SDS011;46552;52.150;8.428;2023-10-09T01:58:48;20.90;;;10.77;;
4434;SDS011;46552;52.150;8.428;2023-10-09T02:01:16;24.33;;;10.60;;
4434;SDS011;46552;52.150;8.428;2023-10-09T02:03:46;29.20;;;12.17;;
4434;SDS011;46552;52.150;8.428;2023-10-09T02:06:16;31.07;;;13.57;;
4434;SDS011;46552;52.150;8.428;2023-10-09T02:08:52;25.57;;;12.17;;
4434;SDS011;46552;52.150;8.428;2023-10-09T02:11:21;33.83;;;15.73;;
4434;SDS011;46552;52.150;8.428;2023-10-09T02:14:02;30.70;;;13.77;;
4434;SDS011;46552;52.150;8.428;2023-10-09T02:16:41;35.80;;;14.80;;
4434;SDS011;46552;52.150;8.428;2023-10-09T02:19:08;31.40;;;16.00;;
4434;SDS011;46552;52.150;8.428;2023-10-09T02:21:55;41.30;;;17.30;;
4434;SDS011;46552;52.150;8.428;2023-10-09T02:24:25;40.17;;;16.20;;
4434;SDS011;46552;52.150;8.428;2023-10-09T02:27:14;36.10;;;15.43;;
4434;SDS011;46552;52.150;8.428;2023-10-09T02:30:04;32.30;;;15.30;;
4434;SDS011;46552;52.150;8.428;2023-10-09T02:32:40;34.27;;;17.17;;
4434;SDS011;46552;52.150;8.428;2023-10-09T02:35:09;37.53;;;16.40;;
4434;SDS011;46552;52.150;8.428;2023-10-09T02:37:45;45.20;;;17.00;;
4434;SDS011;46552;52.150;8.428;2023-10-09T02:40:14;41.90;;;17.13;;
4434;SDS011;46552;52.150;8.428;2023-10-09T02:42:56;38.37;;;16.53;;
4434;SDS011;46552;52.150;8.428;2023-10-09T02:45:24;36.40;;;16.03;;
4434;SDS011;46552;52.150;8.428;2023-10-09T02:47:54;40.63;;;19.33;;
4434;SDS011;46552;52.150;8.428;2023-10-09T02:50:22;40.30;;;18.10;;
4434;SDS011;46552;52.150;8.428;2023-10-09T02:52:54;34.23;;;17.83;;
4434;SDS011;46552;52.150;8.428;2023-10-09T02:55:35;37.57;;;18.87;;
4434;SDS011;46552;52.150;8.428;2023-10-09T02:58:04;41.93;;;18.17;;
4434;SDS011;46552;52.150;8.428;2023-10-09T03:00:33;43.83;;;19.23;;
4434;SDS011;46552;52.150;8.428;2023-10-09T03:03:02;44.20;;;17.43;;
4434;SDS011;46552;52.150;8.428;2023-10-09T03:05:32;34.30;;;16.47;;
4434;SDS011;46552;52.150;8.428;2023-10-09T03:08:03;40.90;;;17.57;;
4434;SDS011;46552;52.150;8.428;2023-10-09T03:10:31;46.63;;;17.07;;
4434;SDS011;46552;52.150;8.428;2023-10-09T03:13:00;45.63;;;18.03;;
4434;SDS011;46552;52.150;8.428;2023-10-09T03:15:31;50.43;;;20.20;;
4434;SDS011;46552;52.150;8.428;2023-10-09T03:18:01;39.13;;;17.03;;
4434;SDS011;46552;52.150;8.428;2023-10-09T03:20:29;38.63;;;17.30;;
4434;SDS011;46552;52.150;8.428;2023-10-09T03:22:56;38.93;;;17.40;;
4434;SDS011;46552;52.150;8.428;2023-10-09T03:25:26;39.67;;;20.37;;
4434;SDS011;46552;52.150;8.428;2023-10-09T03:27:53;43.53;;;20.37;;
4434;SDS011;46552;52.150;8.428;2023-10-09T03:30:25;42.30;;;19.03;;
4434;SDS011;46552;52.150;8.428;2023-10-09T03:32:52;41.23;;;18.87;;
4434;SDS011;46552;52.150;8.428;2023-10-09T03:35:22;43.23;;;19.17;;
4434;SDS011;46552;52.150;8.428;2023-10-09T03:37:54;40.70;;;19.40;;
4434;SDS011;46552;52.150;8.428;2023-10-09T03:40:25;38.80;;;19.90;;
4434;SDS011;46552;52.150;8.428;2023-10-09T03:42:53;39.83;;;19.43;;
4434;SDS011;46552;52.150;8.428;2023-10-09T03:45:22;38.37;;;18.80;;
4434;SDS011;46552;52.150;8.428;2023-10-09T03:47:55;43.40;;;20.40;;
4434;SDS011;46552;52.150;8.428;2023-10-09T03:50:27;44.30;;;20.57;;
4434;SDS011;46552;52.150;8.428;2023-10-09T03:53:01;52.13;;;20.80;;
4434;SDS011;46552;52.150;8.428;2023-10-09T03:55:34;47.73;;;21.77;;
4434;SDS011;46552;52.150;8.428;2023-10-09T03:58:03;37.23;;;18.90;;
4434;SDS011;46552;52.150;8.428;2023-10-09T04:00:33;36.63;;;18.93;;
4434;SDS011;46552;52.150;8.428;2023-10-09T04:03:10;43.90;;;19.03;;
4434;SDS011;46552;52.150;8.428;2023-10-09T04:05:39;37.83;;;20.03;;
4434;SDS011;46552;52.150;8.428;2023-10-09T04:08:08;46.00;;;19.30;;
4434;SDS011;46552;52.150;8.428;2023-10-09T04:10:38;41.13;;;18.87;;
4434;SDS011;46552;52.150;8.428;2023-10-09T04:13:17;42.20;;;20.17;;
4434;SDS011;46552;52.150;8.428;2023-10-09T04:15:49;45.17;;;20.93;;
4434;SDS011;46552;52.150;8.428;2023-10-09T04:18:18;48.43;;;21.57;;
4434;SDS011;46552;52.150;8.428;2023-10-09T04:20:53;47.67;;;20.07;;
4434;SDS011;46552;52.150;8.428;2023-10-09T04:23:38;54.70;;;22.30;;
4434;SDS011;46552;52.150;8.428;2023-10-09T04:26:19;52.93;;;21.77;;
4434;SDS011;46552;52.150;8.428;2023-10-09T04:28:46;50.10;;;22.00;;
4434;SDS011;46552;52.150;8.428;2023-10-09T04:31:18;51.53;;;20.90;;
4434;SDS011;46552;52.150;8.428;2023-10-09T04:33:57;45.43;;;21.70;;
4434;SDS011;46552;52.150;8.428;2023-10-09T04:36:38;47.00;;;22.00;;
4434;SDS011;46552;52.150;8.428;2023-10-09T04:39:12;48.80;;;21.40;;
4434;SDS011;46552;52.150;8.428;2023-10-09T04:42:00;52.80;;;23.77;;
4434;SDS011;46552;52.150;8.428;2023-10-09T04:44:50;50.17;;;22.60;;
4434;SDS011;46552;52.150;8.428;2023-10-09T04:47:42;49.73;;;22.60;;
4434;SDS011;46552;52.150;8.428;2023-10-09T04:50:23;42.60;;;22.00;;
4434;SDS011;46552;52.150;8.428;2023-10-09T04:53:07;46.13;;;22.60;;
4434;SDS011;46552;52.150;8.428;2023-10-09T04:55:48;51.47;;;24.03;;
4434;SDS011;46552;52.150;8.428;2023-10-09T04:58:22;49.93;;;23.30;;
4434;SDS011;46552;52.150;8.428;2023-10-09T05:00:51;50.97;;;21.77;;
4434;SDS011;46552;52.150;8.428;2023-10-09T05:03:39;46.83;;;23.40;;
4434;SDS011;46552;52.150;8.428;2023-10-09T05:06:10;50.40;;;23.40;;
4434;SDS011;46552;52.150;8.428;2023-10-09T05:09:07;48.90;;;22.30;;
4434;SDS011;46552;52.150;8.428;2023-10-09T05:11:36;50.47;;;22.83;;
4434;SDS011;46552;52.150;8.428;2023-10-09T05:14:21;50.77;;;24.50;;
4434;SDS011;46552;52.150;8.428;2023-10-09T05:17:03;49.50;;;23.07;;
4434;SDS011;46552;52.150;8.428;2023-10-09T05:19:30;57.47;;;24.67;;
4434;SDS011;46552;52.150;8.428;2023-10-09T05:22:41;43.73;;;21.30;;
4434;SDS011;46552;52.150;8.428;2023-10-09T05:25:18;45.57;;;24.30;;
4434;SDS011;46552;52.150;8.428;2023-10-09T05:28:05;52.17;;;24.03;;
4434;SDS011;46552;52.150;8.428;2023-10-09T05:30:46;50.47;;;23.77;;
4434;SDS011;46552;52.150;8.428;2023-10-09T05:33:20;42.80;;;23.20;;
4434;SDS011;46552;52.150;8.428;2023-10-09T05:36:00;52.50;;;23.43;;
4434;SDS011;46552;52.150;8.428;2023-10-09T05:38:40;52.00;;;24.10;;
4434;SDS011;46552;52.150;8.428;2023-10-09T05:41:11;48.83;;;24.43;;
4434;SDS011;46552;52.150;8.428;2023-10-09T05:43:56;61.90;;;24.67;;
4434;SDS011;46552;52.150;8.428;2023-10-09T05:46:40;56.53;;;26.47;;
4434;SDS011;46552;52.150;8.428;2023-10-09T05:49:27;49.57;;;25.37;;
4434;SDS011;46552;52.150;8.428;2023-10-09T05:52:12;59.40;;;26.77;;
4434;SDS011;46552;52.150;8.428;2023-10-09T05:54:57;57.10;;;24.17;;
4434;SDS011;46552;52.150;8.428;2023-10-09T05:57:50;63.17;;;26.23;;
4434;SDS011;46552;52.150;8.428;2023-10-09T06:00:34;46.30;;;24.90;;
4434;SDS011;46552;52.150;8.428;2023-10-09T06:03:19;64.43;;;27.47;;
4434;SDS011;46552;52.150;8.428;2023-10-09T06:06:10;63.97;;;28.10;;
4434;SDS011;46552;52.150;8.428;2023-10-09T06:08:44;53.67;;;27.00;;
4434;SDS011;46552;52.150;8.428;2023-10-09T06:11:29;67.23;;;26.33;;
4434;SDS011;46552;52.150;8.428;2023-10-09T06:14:06;68.33;;;27.77;;
4434;SDS011;46552;52.150;8.428;2023-10-09T06:16:38;52.27;;;27.67;;
4434;SDS011;46552;52.150;8.428;2023-10-09T06:19:25;61.23;;;27.03;;
4434;SDS011;46552;52.150;8.428;2023-10-09T06:21:53;65.60;;;28.30;;
4434;SDS011;46552;52.150;8.428;2023-10-09T06:24:51;56.07;;;29.30;;
4434;SDS011;46552;52.150;8.428;2023-10-09T06:27:22;55.47;;;28.33;;
4434;SDS011;46552;52.150;8.428;2023-10-09T06:30:13;60.07;;;27.63;;
4434;SDS011;46552;52.150;8.428;2023-10-09T06:32:40;60.53;;;27.87;;
4434;SDS011;46552;52.150;8.428;2023-10-09T06:35:16;51.50;;;27.80;;
4434;SDS011;46552;52.150;8.428;2023-10-09T06:37:43;74.37;;;32.07;;
4434;SDS011;46552;52.150;8.428;2023-10-09T06:40:30;57.53;;;25.70;;
4434;SDS011;46552;52.150;8.428;2023-10-09T06:43:15;59.83;;;29.03;;
4434;SDS011;46552;52.150;8.428;2023-10-09T06:45:52;49.30;;;26.43;;
4434;SDS011;46552;52.150;8.428;2023-10-09T06:48:23;51.57;;;26.03;;
4434;SDS011;46552;52.150;8.428;2023-10-09T06:51:10;53.67;;;26.47;;
4434;SDS011;46552;52.150;8.428;2023-10-09T06:54:02;58.33;;;27.07;;
4434;SDS011;46552;52.150;8.428;2023-10-09T06:56:34;62.57;;;28.33;;
4434;SDS011;46552;52.150;8.428;2023-10-09T06:59:18;60.70;;;27.20;;
4434;SDS011;46552;52.150;8.428;2023-10-09T07:01:49;57.10;;;28.00;;
4434;SDS011;46552;52.150;8.428;2023-10-09T07:04:34;63.93;;;30.73;;
4434;SDS011;46552;52.150;8.428;2023-10-09T07:07:13;57.97;;;28.50;;
4434;SDS011;46552;52.150;8.428;2023-10-09T07:09:41;76.70;;;30.13;;
4434;SDS011;46552;52.150;8.428;2023-10-09T07:12:30;50.43;;;25.27;;
4434;SDS011;46552;52.150;8.428;2023-10-09T07:14:59;57.17;;;25.00;;
4434;SDS011;46552;52.150;8.428;2023-10-09T07:17:43;53.00;;;26.00;;
4434;SDS011;46552;52.150;8.428;2023-10-09T07:20:11;53.03;;;28.97;;
4434;SDS011;46552;52.150;8.428;2023-10-09T07:23:01;54.13;;;25.20;;
4434;SDS011;46552;52.150;8.428;2023-10-09T07:25:40;59.70;;;28.30;;
4434;SDS011;46552;52.150;8.428;2023-10-09T07:28:21;54.23;;;27.70;;
4434;SDS011;46552;52.150;8.428;2023-10-09T07:31:01;59.47;;;28.60;;
4434;SDS011;46552;52.150;8.428;2023-10-09T07:33:29;52.87;;;28.40;;
4434;SDS011;46552;52.150;8.428;2023-10-09T07:36:17;64.53;;;29.77;;
4434;SDS011;46552;52.150;8.428;2023-10-09T07:38:55;57.03;;;25.03;;
4434;SDS011;46552;52.150;8.428;2023-10-09T07:41:29;50.77;;;27.50;;
4434;SDS011;46552;52.150;8.428;2023-10-09T07:44:04;61.10;;;26.60;;
4434;SDS011;46552;52.150;8.428;2023-10-09T07:46:59;66.07;;;27.77;;
4434;SDS011;46552;52.150;8.428;2023-10-09T07:49:48;51.37;;;26.43;;
4434;SDS011;46552;52.150;8.428;2023-10-09T07:52:18;47.37;;;27.47;;
4434;SDS011;46552;52.150;8.428;2023-10-09T07:54:50;53.93;;;27.43;;
4434;SDS011;46552;52.150;8.428;2023-10-09T07:57:26;50.87;;;26.47;;
4434;SDS011;46552;52.150;8.428;2023-10-09T08:00:05;49.10;;;26.53;;
4434;SDS011;46552;52.150;8.428;2023-10-09T08:03:00;49.97;;;26.70;;
4434;SDS011;46552;52.150;8.428;2023-10-09T08:05:28;60.50;;;29.20;;
4434;SDS011;46552;52.150;8.428;2023-10-09T08:08:00;58.17;;;29.60;;
4434;SDS011;46552;52.150;8.428;2023-10-09T08:10:44;64.67;;;29.27;;
4434;SDS011;46552;52.150;8.428;2023-10-09T08:13:34;55.47;;;28.43;;
4434;SDS011;46552;52.150;8.428;2023-10-09T08:16:19;62.57;;;27.70;;
4434;SDS011;46552;52.150;8.428;2023-10-09T08:18:47;67.87;;;30.70;;
4434;SDS011;46552;52.150;8.428;2023-10-09T08:21:16;63.27;;;29.93;;
4434;SDS011;46552;52.150;8.428;2023-10-09T08:24:06;55.40;;;25.77;;
4434;SDS011;46552;52.150;8.428;2023-10-09T08:26:53;56.50;;;28.93;;
4434;SDS011;46552;52.150;8.428;2023-10-09T08:29:40;50.17;;;27.27;;
4434;SDS011;46552;52.150;8.428;2023-10-09T08:32:13;53.33;;;28.67;;
4434;SDS011;46552;52.150;8.428;2023-10-09T08:34:57;66.40;;;30.20;;
4434;SDS011;46552;52.150;8.428;2023-10-09T08:37:25;59.47;;;30.03;;
4434;SDS011;46552;52.150;8.428;2023-10-09T08:39:52;62.30;;;29.90;;
4434;SDS011;46552;52.150;8.428;2023-10-09T08:42:19;55.13;;;27.90;;
4434;SDS011;46552;52.150;8.428;2023-10-09T08:44:49;51.50;;;27.07;;
4434;SDS011;46552;52.150;8.428;2023-10-09T08:47:18;58.57;;;28.13;;
4434;SDS011;46552;52.150;8.428;2023-10-09T08:49:46;53.73;;;28.83;;
4434;SDS011;46552;52.150;8.428;2023-10-09T08:52:13;57.63;;;28.93;;
4434;SDS011;46552;52.150;8.428;2023-10-09T08:54:40;65.33;;;28.07;;
4434;SDS011;46552;52.150;8.428;2023-10-09T08:57:10;51.30;;;26.40;;
4434;SDS011;46552;52.150;8.428;2023-10-09T08:59:43;57.93;;;29.30;;
4434;SDS011;46552;52.150;8.428;2023-10-09T09:02:11;56.60;;;27.77;;
4434;SDS011;46552;52.150;8.428;2023-10-09T09:04:39;53.70;;;28.27;;
4434;SDS011;46552;52.150;8.428;2023-10-09T09:07:23;55.03;;;28.80;;
4434;SDS011;46552;52.150;8.428;2023-10-09T09:09:57;57.60;;;28.07;;
4434;SDS011;46552;52.150;8.428;2023-10-09T09:12:29;54.43;;;26.80;;
4434;SDS011;46552;52.150;8.428;2023-10-09T09:15:02;53.07;;;28.83;;
4434;SDS011;46552;52.150;8.428;2023-10-09T09:17:32;45.70;;;27.47;;
4434;SDS011;46552;52.150;8.428;2023-10-09T09:20:10;50.13;;;27.20;;
4434;SDS011;46552;52.150;8.428;2023-10-09T09:22:51;49.53;;;27.70;;
4434;SDS011;46552;52.150;8.428;2023-10-09T09:25:19;50.10;;;27.60;;
4434;SDS011;46552;52.150;8.428;2023-10-09T09:27:49;53.60;;;27.47;;
4434;SDS011;46552;52.150;8.428;2023-10-09T09:30:22;51.60;;;28.10;;
4434;SDS011;46552;52.150;8.428;2023-10-09T09:32:51;47.80;;;27.73;;
4434;SDS011;46552;52.150;8.428;2023-10-09T09:35:40;54.67;;;28.23;;
4434;SDS011;46552;52.150;8.428;2023-10-09T09:38:23;51.17;;;26.17;;
4434;SDS011;46552;52.150;8.428;2023-10-09T09:40:53;50.70;;;29.17;;
4434;SDS011;46552;52.150;8.428;2023-10-09T09:43:23;54.07;;;29.07;;
4434;SDS011;46552;52.150;8.428;2023-10-09T09:45:52;49.27;;;28.27;;
4434;SDS011;46552;52.150;8.428;2023-10-09T09:48:21;58.20;;;28.73;;
4434;SDS011;46552;52.150;8.428;2023-10-09T09:50:53;63.37;;;27.40;;
4434;SDS011;46552;52.150;8.428;2023-10-09T09:53:20;49.03;;;26.30;;
4434;SDS011;46552;52.150;8.428;2023-10-09T09:55:51;46.73;;;26.93;;
4434;SDS011;46552;52.150;8.428;2023-10-09T09:58:23;45.97;;;25.87;;
4434;SDS011;46552;52.150;8.428;2023-10-09T10:00:53;60.37;;;29.47;;
4434;SDS011;46552;52.150;8.428;2023-10-09T10:03:27;50.37;;;28.60;;
4434;SDS011;46552;52.150;8.428;2023-10-09T10:06:00;50.10;;;26.37;;
4434;SDS011;46552;52.150;8.428;2023-10-09T10:08:30;44.37;;;25.33;;
4434;SDS011;46552;52.150;8.428;2023-10-09T10:10:58;49.87;;;27.67;;
4434;SDS011;46552;52.150;8.428;2023-10-09T10:16:26;50.57;;;28.30;;
4434;SDS011;46552;52.150;8.428;2023-10-09T10:19:00;54.40;;;27.30;;
4434;SDS011;46552;52.150;8.428;2023-10-09T10:21:49;46.97;;;28.40;;
4434;SDS011;46552;52.150;8.428;2023-10-09T10:27:19;47.83;;;26.90;;
4434;SDS011;46552;52.150;8.428;2023-10-09T10:32:59;43.97;;;26.70;;
4434;SDS011;46552;52.150;8.428;2023-10-09T10:35:35;49.30;;;26.73;;
4434;SDS011;46552;52.150;8.428;2023-10-09T10:38:27;48.43;;;29.33;;
4434;SDS011;46552;52.150;8.428;2023-10-09T10:41:11;54.87;;;27.97;;
4434;SDS011;46552;52.150;8.428;2023-10-09T10:43:42;51.67;;;27.20;;
4434;SDS011;46552;52.150;8.428;2023-10-09T10:46:26;54.70;;;28.70;;
4434;SDS011;46552;52.150;8.428;2023-10-09T10:49:03;51.00;;;30.23;;
4434;SDS011;46552;52.150;8.428;2023-10-09T10:51:40;56.13;;;29.40;;
4434;SDS011;46552;52.150;8.428;2023-10-09T10:54:19;49.90;;;30.53;;
4434;SDS011;46552;52.150;8.428;2023-10-09T10:57:13;52.57;;;28.73;;
4434;SDS011;46552;52.150;8.428;2023-10-09T10:59:45;46.03;;;29.63;;
4434;SDS011;46552;52.150;8.428;2023-10-09T11:02:14;53.43;;;31.73;;
4434;SDS011;46552;52.150;8.428;2023-10-09T11:04:53;47.47;;;29.27;;
4434;SDS011;46552;52.150;8.428;2023-10-09T11:07:39;56.50;;;32.70;;
4434;SDS011;46552;52.150;8.428;2023-10-09T11:10:09;33.27;;;18.97;;
4434;SDS011;46552;52.150;8.428;2023-10-09T11:12:51;57.87;;;30.80;;
4434;SDS011;46552;52.150;8.428;2023-10-09T11:15:33;49.97;;;29.30;;
4434;SDS011;46552;52.150;8.428;2023-10-09T11:18:21;45.83;;;28.03;;
4434;SDS011;46552;52.150;8.428;2023-10-09T11:20:51;50.93;;;29.50;;
4434;SDS011;46552;52.150;8.428;2023-10-09T11:23:43;53.40;;;28.70;;
4434;SDS011;46552;52.150;8.428;2023-10-09T11:26:24;59.37;;;31.17;;
4434;SDS011;46552;52.150;8.428;2023-10-09T11:29:08;49.57;;;31.03;;
4434;SDS011;46552;52.150;8.428;2023-10-09T11:31:57;48.43;;;29.50;;
4434;SDS011;46552;52.150;8.428;2023-10-09T11:34:25;54.87;;;29.30;;
4434;SDS011;46552;52.150;8.428;2023-10-09T11:36:57;54.47;;;29.73;;
4434;SDS011;46552;52.150;8.428;2023-10-09T11:39:24;57.17;;;30.73;;
4434;SDS011;46552;52.150;8.428;2023-10-09T11:42:03;57.47;;;31.27;;
4434;SDS011;46552;52.150;8.428;2023-10-09T11:44:39;48.37;;;30.50;;
4434;SDS011;46552;52.150;8.428;2023-10-09T11:47:10;52.03;;;30.40;;
4434;SDS011;46552;52.150;8.428;2023-10-09T11:49:49;52.83;;;32.17;;
4434;SDS011;46552;52.150;8.428;2023-10-09T11:52:35;52.83;;;33.97;;
4434;SDS011;46552;52.150;8.428;2023-10-09T11:55:03;54.77;;;33.67;;
4434;SDS011;46552;52.150;8.428;2023-10-09T11:57:34;70.80;;;33.37;;
4434;SDS011;46552;52.150;8.428;2023-10-09T12:00:00;61.07;;;34.87;;
4434;SDS011;46552;52.150;8.428;2023-10-09T12:02:35;60.67;;;32.87;;
4434;SDS011;46552;52.150;8.428;2023-10-09T12:05:09;64.80;;;36.33;;
4434;SDS011;46552;52.150;8.428;2023-10-09T12:07:42;64.77;;;36.57;;
4434;SDS011;46552;52.150;8.428;2023-10-09T12:10:10;61.50;;;35.00;;
4434;SDS011;46552;52.150;8.428;2023-10-09T12:12:40;54.83;;;31.23;;
4434;SDS011;46552;52.150;8.428;2023-10-09T12:15:11;55.83;;;31.93;;
4434;SDS011;46552;52.150;8.428;2023-10-09T12:17:42;56.47;;;32.80;;
4434;SDS011;46552;52.150;8.428;2023-10-09T12:20:12;49.60;;;32.00;;
4434;SDS011;46552;52.150;8.428;2023-10-09T12:22:55;60.07;;;33.97;;
4434;SDS011;46552;52.150;8.428;2023-10-09T12:25:24;54.27;;;30.77;;
4434;SDS011;46552;52.150;8.428;2023-10-09T12:27:53;57.93;;;32.33;;
4434;SDS011;46552;52.150;8.428;2023-10-09T12:30:22;52.33;;;31.63;;
4434;SDS011;46552;52.150;8.428;2023-10-09T12:32:53;46.47;;;31.73;;
4434;SDS011;46552;52.150;8.428;2023-10-09T12:35:23;52.93;;;31.20;;
4434;SDS011;46552;52.150;8.428;2023-10-09T12:37:51;52.70;;;31.00;;
4434;SDS011;46552;52.150;8.428;2023-10-09T12:40:20;52.20;;;27.23;;
4434;SDS011;46552;52.150;8.428;2023-10-09T12:42:55;44.67;;;26.80;;
4434;SDS011;46552;52.150;8.428;2023-10-09T12:45:24;40.47;;;25.73;;
4434;SDS011;46552;52.150;8.428;2023-10-09T12:47:53;44.10;;;26.23;;
4434;SDS011;46552;52.150;8.428;2023-10-09T12:50:24;47.90;;;28.23;;
4434;SDS011;46552;52.150;8.428;2023-10-09T12:52:55;48.17;;;27.43;;
4434;SDS011;46552;52.150;8.428;2023-10-09T12:55:26;47.63;;;28.00;;
4434;SDS011;46552;52.150;8.428;2023-10-09T12:57:58;46.23;;;27.80;;
4434;SDS011;46552;52.150;8.428;2023-10-09T13:00:32;44.50;;;27.90;;
4434;SDS011;46552;52.150;8.428;2023-10-09T13:03:02;61.57;;;29.60;;
4434;SDS011;46552;52.150;8.428;2023-10-09T13:05:42;52.00;;;28.60;;
4434;SDS011;46552;52.150;8.428;2023-10-09T13:08:20;46.97;;;28.90;;
4434;SDS011;46552;52.150;8.428;2023-10-09T13:10:49;53.67;;;29.37;;
4434;SDS011;46552;52.150;8.428;2023-10-09T13:13:25;54.63;;;29.37;;
4434;SDS011;46552;52.150;8.428;2023-10-09T13:16:04;54.03;;;30.27;;
4434;SDS011;46552;52.150;8.428;2023-10-09T13:18:36;47.97;;;31.33;;
4434;SDS011;46552;52.150;8.428;2023-10-09T13:21:04;54.83;;;31.17;;
4434;SDS011;46552;52.150;8.428;2023-10-09T13:23:31;51.97;;;28.77;;
4434;SDS011;46552;52.150;8.428;2023-10-09T13:26:04;53.97;;;29.40;;
4434;SDS011;46552;52.150;8.428;2023-10-09T13:28:44;54.43;;;29.73;;
4434;SDS011;46552;52.150;8.428;2023-10-09T13:31:12;53.87;;;31.10;;
4434;SDS011;46552;52.150;8.428;2023-10-09T13:33:40;50.13;;;28.87;;
4434;SDS011;46552;52.150;8.428;2023-10-09T13:36:08;45.57;;;26.27;;
4434;SDS011;46552;52.150;8.428;2023-10-09T13:38:42;48.63;;;28.17;;
4434;SDS011;46552;52.150;8.428;2023-10-09T13:41:11;44.77;;;26.67;;
4434;SDS011;46552;52.150;8.428;2023-10-09T13:43:39;42.27;;;27.57;;
4434;SDS011;46552;52.150;8.428;2023-10-09T13:46:10;54.70;;;30.00;;
4434;SDS011;46552;52.150;8.428;2023-10-09T13:48:39;64.77;;;32.33;;
4434;SDS011;46552;52.150;8.428;2023-10-09T13:51:08;50.00;;;26.50;;
4434;SDS011;46552;52.150;8.428;2023-10-09T13:53:39;47.63;;;24.70;;
4434;SDS011;46552;52.150;8.428;2023-10-09T13:56:12;51.30;;;28.10;;
4434;SDS011;46552;52.150;8.428;2023-10-09T13:58:44;43.90;;;26.60;;
4434;SDS011;46552;52.150;8.428;2023-10-09T14:01:14;44.50;;;24.20;;
4434;SDS011;46552;52.150;8.428;2023-10-09T14:03:53;50.67;;;27.70;;
4434;SDS011;46552;52.150;8.428;2023-10-09T14:06:21;44.40;;;25.27;;
4434;SDS011;46552;52.150;8.428;2023-10-09T14:08:55;59.70;;;26.57;;
4434;SDS011;46552;52.150;8.428;2023-10-09T14:11:24;45.50;;;25.10;;
4434;SDS011;46552;52.150;8.428;2023-10-09T14:13:51;52.67;;;26.33;;
4434;SDS011;46552;52.150;8.428;2023-10-09T14:16:20;47.73;;;24.20;;
4434;SDS011;46552;52.150;8.428;2023-10-09T14:18:58;39.60;;;23.10;;
4434;SDS011;46552;52.150;8.428;2023-10-09T14:21:26;36.07;;;20.87;;
4434;SDS011;46552;52.150;8.428;2023-10-09T14:23:55;40.27;;;21.80;;
4434;SDS011;46552;52.150;8.428;2023-10-09T14:26:26;41.40;;;21.33;;
4434;SDS011;46552;52.150;8.428;2023-10-09T14:28:54;36.57;;;20.67;;
4434;SDS011;46552;52.150;8.428;2023-10-09T14:31:23;36.80;;;19.17;;
4434;SDS011;46552;52.150;8.428;2023-10-09T14:33:54;29.93;;;18.70;;
4434;SDS011;46552;52.150;8.428;2023-10-09T14:36:22;30.83;;;18.17;;
4434;SDS011;46552;52.150;8.428;2023-10-09T14:38:50;33.07;;;16.97;;
4434;SDS011;46552;52.150;8.428;2023-10-09T14:41:19;31.07;;;16.70;;
4434;SDS011;46552;52.150;8.428;2023-10-09T14:43:48;32.77;;;18.47;;
4434;SDS011;46552;52.150;8.428;2023-10-09T14:46:17;41.17;;;15.93;;
4434;SDS011;46552;52.150;8.428;2023-10-09T14:48:51;37.43;;;17.80;;
4434;SDS011;46552;52.150;8.428;2023-10-09T14:51:19;36.93;;;18.33;;
4434;SDS011;46552;52.150;8.428;2023-10-09T14:53:52;34.43;;;16.00;;
4434;SDS011;46552;52.150;8.428;2023-10-09T14:56:22;31.93;;;14.40;;
4434;SDS011;46552;52.150;8.428;2023-10-09T14:58:54;29.03;;;17.10;;
4434;SDS011;46552;52.150;8.428;2023-10-09T15:01:23;29.43;;;15.23;;
4434;SDS011;46552;52.150;8.428;2023-10-09T15:03:55;37.07;;;16.87;;
4434;SDS011;46552;52.150;8.428;2023-10-09T15:06:24;32.53;;;15.20;;
4434;SDS011;46552;52.150;8.428;2023-10-09T15:08:55;28.60;;;14.17;;
4434;SDS011;46552;52.150;8.428;2023-10-09T15:11:23;28.20;;;15.60;;
4434;SDS011;46552;52.150;8.428;2023-10-09T15:13:51;21.97;;;12.73;;
4434;SDS011;46552;52.150;8.428;2023-10-09T15:16:18;23.77;;;13.10;;
4434;SDS011;46552;52.150;8.428;2023-10-09T15:18:47;33.37;;;15.07;;
4434;SDS011;46552;52.150;8.428;2023-10-09T15:21:19;29.53;;;12.53;;
4434;SDS011;46552;52.150;8.428;2023-10-09T15:23:48;29.17;;;13.13;;
4434;SDS011;46552;52.150;8.428;2023-10-09T15:26:16;30.63;;;13.43;;
4434;SDS011;46552;52.150;8.428;2023-10-09T15:28:43;29.53;;;15.30;;